Time;durP1;ratioP1;P1;durP2;ratioP2;P2;SDS_P1;SDS_P2;PMS_P1;PMS_P2;Temp;Humidity;BMP_temperature;BMP_pressure;BME280_temperature;BME280_humidity;BME280_pressure;Samples;Min_cycle;Max_cycle;Signal;HPM_P1;HPM_P2
2024/01/02 00:02:07;;;;;;;11.07;1.63;;;6.10;99.90;;;;;;5075641;28;20162;-69
2024/01/02 00:04:33;;;;;;;12.07;1.70;;;6.10;99.90;;;;;;5081389;28;20035;-69
2024/01/02 00:06:58;;;;;;;6.55;1.40;;;6.10;99.90;;;;;;5082925;28;20032;-68
2024/01/02 00:09:24;;;;;;;8.50;2.13;;;6.00;99.90;;;;;;5082804;28;20024;-69
2024/01/02 00:11:49;;;;;;;7.25;1.75;;;6.10;99.90;;;;;;5081372;28;20060;-69
2024/01/02 00:14:15;;;;;;;13.68;2.00;;;6.10;99.90;;;;;;5083782;28;20028;-68
2024/01/02 00:16:41;;;;;;;8.48;2.03;;;6.10;99.90;;;;;;5079826;28;20024;-68
2024/01/02 00:19:06;;;;;;;11.13;1.98;;;6.10;99.90;;;;;;5083217;28;20109;-68
2024/01/02 00:21:32;;;;;;;6.35;2.03;;;6.10;99.90;;;;;;5081482;28;20059;-68
2024/01/02 00:23:58;;;;;;;15.05;2.50;;;6.10;99.90;;;;;;5080585;28;20120;-68
2024/01/02 00:26:24;;;;;;;6.60;1.70;;;6.20;99.90;;;;;;5087784;28;20020;-69
2024/01/02 00:28:50;;;;;;;12.20;2.33;;;6.10;99.90;;;;;;5084670;28;20032;-68
2024/01/02 00:31:15;;;;;;;7.30;1.77;;;6.20;99.90;;;;;;5078906;28;20345;-68
2024/01/02 00:33:41;;;;;;;7.60;1.80;;;6.20;99.90;;;;;;5080970;28;20020;-68
2024/01/02 00:36:11;;;;;;;8.40;1.75;;;6.20;99.90;;;;;;5072100;28;20021;-68
2024/01/02 00:38:36;;;;;;;8.48;1.98;;;6.20;99.90;;;;;;5083289;28;20055;-68
2024/01/02 00:41:02;;;;;;;6.57;1.70;;;6.20;99.90;;;;;;5081067;28;20706;-68
2024/01/02 00:43:28;;;;;;;14.05;1.92;;;6.20;99.90;;;;;;5082085;28;20448;-68
2024/01/02 00:45:55;;;;;;;9.07;2.03;;;6.20;99.90;;;;;;5081696;28;20071;-68
2024/01/02 00:48:21;;;;;;;6.22;1.50;;;6.20;99.90;;;;;;5081144;28;20104;-68
2024/01/02 00:50:47;;;;;;;5.93;1.45;;;6.30;99.90;;;;;;5081339;28;20872;-68
2024/01/02 00:53:13;;;;;;;8.00;1.45;;;6.30;99.90;;;;;;5082845;28;20013;-68
2024/01/02 00:55:38;;;;;;;11.02;1.52;;;6.20;99.90;;;;;;5082477;28;20028;-68
2024/01/02 00:58:04;;;;;;;6.75;1.70;;;6.30;99.90;;;;;;5082392;28;20025;-68
2024/01/02 01:00:30;;;;;;;6.07;1.40;;;6.20;99.90;;;;;;5082526;28;20048;-68
2024/01/02 01:02:55;;;;;;;8.65;1.65;;;6.30;99.90;;;;;;5082010;28;20025;-69
2024/01/02 01:05:21;;;;;;;7.93;1.80;;;6.30;99.90;;;;;;5079893;28;20115;-68
2024/01/02 01:07:46;;;;;;;7.70;1.75;;;6.30;99.90;;;;;;5080388;28;20494;-68
2024/01/02 01:10:12;;;;;;;5.57;1.52;;;6.30;99.90;;;;;;5081601;28;20165;-69
2024/01/02 01:12:38;;;;;;;7.85;1.80;;;6.30;99.90;;;;;;5078466;28;20056;-69
2024/01/02 01:15:04;;;;;;;5.80;1.25;;;6.30;99.90;;;;;;5082933;28;20032;-68
2024/01/02 01:17:30;;;;;;;8.88;1.48;;;6.30;99.90;;;;;;5081959;28;20073;-68
2024/01/02 01:19:56;;;;;;;8.25;1.60;;;6.40;99.90;;;;;;5078981;28;20429;-68
2024/01/02 01:22:22;;;;;;;5.03;1.48;;;6.40;99.90;;;;;;5080316;28;20111;-68
2024/01/02 01:24:48;;;;;;;6.13;1.45;;;6.40;99.90;;;;;;5080634;28;20032;-68
2024/01/02 01:27:14;;;;;;;5.60;1.70;;;6.50;99.90;;;;;;5081241;28;20021;-68
2024/01/02 01:29:39;;;;;;;4.15;1.20;;;6.40;99.90;;;;;;5081283;28;20044;-68
2024/01/02 01:32:05;;;;;;;6.80;1.55;;;6.40;99.90;;;;;;5080852;28;20059;-69
2024/01/02 01:34:31;;;;;;;6.40;1.30;;;6.40;99.90;;;;;;5077970;28;20462;-68
2024/01/02 01:36:57;;;;;;;5.63;1.55;;;6.40;99.90;;;;;;5081376;28;20107;-68
2024/01/02 01:39:22;;;;;;;7.22;1.50;;;6.40;99.90;;;;;;5074384;28;20017;-68
2024/01/02 01:41:48;;;;;;;7.95;2.03;;;6.40;99.90;;;;;;5078568;28;20127;-69
2024/01/02 01:44:13;;;;;;;4.60;1.20;;;6.40;99.90;;;;;;5078803;28;20573;-68
2024/01/02 01:46:40;;;;;;;4.85;1.38;;;6.40;99.90;;;;;;5080508;28;20032;-68
2024/01/02 01:49:08;;;;;;;6.13;1.50;;;6.40;99.90;;;;;;5078178;28;20024;-68
2024/01/02 01:51:37;;;;;;;5.57;1.52;;;6.40;99.90;;;;;;5073867;28;20096;-68
2024/01/02 01:54:03;;;;;;;6.05;1.52;;;6.50;99.90;;;;;;5073682;28;20027;-68
2024/01/02 01:56:30;;;;;;;7.78;1.38;;;6.40;99.90;;;;;;5074573;28;20024;-68
2024/01/02 01:58:56;;;;;;;3.55;1.33;;;6.40;99.90;;;;;;5076061;28;20047;-68
2024/01/02 02:01:23;;;;;;;10.05;1.92;;;6.40;99.90;;;;;;5077600;28;20131;-68
2024/01/02 02:03:49;;;;;;;6.57;1.52;;;6.40;99.90;;;;;;5079278;28;20471;-68
2024/01/02 02:06:15;;;;;;;9.82;1.80;;;6.40;99.90;;;;;;5078283;28;20222;-68
2024/01/02 02:08:41;;;;;;;6.45;1.25;;;6.40;99.90;;;;;;5078137;28;20028;-68
2024/01/02 02:11:11;;;;;;;4.38;1.30;;;6.40;99.90;;;;;;5075804;28;20074;-68
2024/01/02 02:13:37;;;;;;;4.38;1.33;;;6.40;99.90;;;;;;5084563;28;20031;-68
2024/01/02 02:16:02;;;;;;;4.68;1.30;;;6.50;99.90;;;;;;5079467;28;20024;-68
2024/01/02 02:18:28;;;;;;;3.05;1.13;;;6.40;99.90;;;;;;5076999;28;20078;-67
2024/01/02 02:20:55;;;;;;;5.10;1.20;;;6.40;99.90;;;;;;5080126;28;20025;-68
2024/01/02 02:23:21;;;;;;;2.53;0.90;;;6.40;99.90;;;;;;5077033;28;20024;-68
2024/01/02 02:25:47;;;;;;;4.57;1.30;;;6.40;99.90;;;;;;5078678;28;20086;-68
2024/01/02 02:28:12;;;;;;;3.00;1.10;;;6.40;99.90;;;;;;5080893;28;20023;-68
2024/01/02 02:30:38;;;;;;;5.80;1.30;;;6.40;99.90;;;;;;5076779;28;20028;-68
2024/01/02 02:33:04;;;;;;;3.58;1.00;;;6.40;99.90;;;;;;5077548;28;20074;-67
2024/01/02 02:35:30;;;;;;;4.78;1.10;;;6.40;99.90;;;;;;5078795;28;20024;-68
2024/01/02 02:37:55;;;;;;;4.55;1.00;;;6.40;99.90;;;;;;5077503;28;20104;-68
2024/01/02 02:40:21;;;;;;;2.88;1.00;;;6.40;99.90;;;;;;5080015;28;20477;-68
2024/01/02 02:42:47;;;;;;;4.80;1.08;;;6.30;99.90;;;;;;5078142;28;20039;-67
2024/01/02 02:45:12;;;;;;;2.22;0.98;;;6.30;99.90;;;;;;5085746;28;20028;-67
2024/01/02 02:47:38;;;;;;;3.03;0.90;;;6.30;99.90;;;;;;5079211;28;20635;-67
2024/01/02 02:50:07;;;;;;;5.25;1.10;;;6.30;99.90;;;;;;5080532;28;20466;-67
2024/01/02 02:52:33;;;;;;;3.70;0.82;;;6.30;99.90;;;;;;5076590;28;20056;-67
2024/01/02 02:54:59;;;;;;;3.65;0.90;;;6.30;99.90;;;;;;5078996;28;20067;-68
2024/01/02 02:57:25;;;;;;;2.25;0.90;;;6.30;99.90;;;;;;5076521;28;20024;-68
2024/01/02 02:59:51;;;;;;;4.60;1.13;;;6.30;99.90;;;;;;5079272;28;20047;-67
2024/01/02 03:02:17;;;;;;;1.75;0.90;;;6.30;99.90;;;;;;5076808;28;20035;-67
2024/01/02 03:04:46;;;;;;;3.65;0.90;;;6.30;99.90;;;;;;5076021;28;20028;-68
2024/01/02 03:07:11;;;;;;;2.80;0.80;;;6.30;99.90;;;;;;5078548;28;20024;-67
2024/01/02 03:09:38;;;;;;;2.10;0.90;;;6.30;99.90;;;;;;5078770;28;20043;-67
2024/01/02 03:12:04;;;;;;;2.65;0.80;;;6.30;99.90;;;;;;5077217;28;20024;-67
2024/01/02 03:14:30;;;;;;;1.83;0.80;;;6.30;99.90;;;;;;5078593;28;20028;-67
2024/01/02 03:16:56;;;;;;;3.08;0.98;;;6.20;99.90;;;;;;5071855;28;20048;-67
2024/01/02 03:19:21;;;;;;;2.42;0.70;;;6.20;99.90;;;;;;5080038;28;20067;-67
2024/01/02 03:21:47;;;;;;;1.25;0.80;;;6.20;99.90;;;;;;5078535;28;20032;-67
2024/01/02 03:24:13;;;;;;;1.02;0.70;;;6.20;99.90;;;;;;5078123;28;20032;-67
2024/01/02 03:26:38;;;;;;;0.63;0.60;;;6.20;99.90;;;;;;5077014;28;20034;-67
2024/01/02 03:29:04;;;;;;;3.35;0.70;;;6.20;99.90;;;;;;5077033;28;20023;-67
2024/01/02 03:31:30;;;;;;;1.05;0.75;;;6.20;99.90;;;;;;5077815;28;20034;-67
2024/01/02 03:33:56;;;;;;;1.38;0.80;;;6.10;99.90;;;;;;5075301;28;20086;-67
2024/01/02 03:36:22;;;;;;;1.85;0.70;;;6.20;99.90;;;;;;5082638;28;20032;-67
2024/01/02 03:38:49;;;;;;;3.25;0.90;;;6.10;99.90;;;;;;5073017;28;20093;-67
2024/01/02 03:41:15;;;;;;;3.33;1.10;;;6.10;99.90;;;;;;5075461;28;20104;-67
2024/01/02 03:43:41;;;;;;;1.88;0.95;;;6.10;99.90;;;;;;5076102;28;20085;-67
2024/01/02 03:46:07;;;;;;;2.00;0.80;;;6.10;99.90;;;;;;5078491;28;20398;-67
2024/01/02 03:48:33;;;;;;;1.60;0.80;;;6.10;99.90;;;;;;5082963;28;20099;-67
2024/01/02 03:51:01;;;;;;;2.45;0.95;;;6.10;99.90;;;;;;5083456;28;20024;-67
2024/01/02 03:53:27;;;;;;;1.92;0.65;;;6.10;99.90;;;;;;5079638;28;20017;-67
2024/01/02 03:55:52;;;;;;;1.38;0.70;;;6.00;99.90;;;;;;5080359;28;20422;-67
2024/01/02 03:58:18;;;;;;;0.95;0.70;;;6.00;99.90;;;;;;5085102;28;20024;-68
2024/01/02 04:00:43;;;;;;;3.80;0.77;;;6.10;99.90;;;;;;5078578;28;20044;-67
2024/01/02 04:03:10;;;;;;;1.98;0.80;;;6.00;99.90;;;;;;5081825;28;20107;-67
2024/01/02 04:05:35;;;;;;;0.93;0.70;;;6.00;99.90;;;;;;5081396;28;20560;-67
2024/01/02 04:08:01;;;;;;;0.68;0.57;;;6.10;99.90;;;;;;5080644;28;20025;-67
2024/01/02 04:10:27;;;;;;;3.75;0.82;;;6.00;99.90;;;;;;5082762;28;20046;-67
2024/01/02 04:12:52;;;;;;;6.20;0.73;;;6.00;99.90;;;;;;5087055;28;20024;-67
2024/01/02 04:15:18;;;;;;;1.40;0.70;;;6.00;99.90;;;;;;5090220;28;20028;-67
2024/01/02 04:17:43;;;;;;;0.70;0.60;;;6.00;99.90;;;;;;5074284;28;20036;-67
2024/01/02 04:20:09;;;;;;;1.05;0.70;;;6.00;99.90;;;;;;5082244;28;20734;-67
2024/01/02 04:22:35;;;;;;;0.55;0.55;;;6.00;99.90;;;;;;5079683;28;20379;-67
2024/01/02 04:25:01;;;;;;;0.77;0.60;;;6.00;99.90;;;;;;5087596;28;20020;-67
2024/01/02 04:27:26;;;;;;;1.85;0.80;;;6.00;99.90;;;;;;5079751;28;20056;-67
2024/01/02 04:29:52;;;;;;;0.60;0.60;;;6.10;99.90;;;;;;5080218;28;20029;-67
2024/01/02 04:32:17;;;;;;;0.85;0.70;;;6.10;99.90;;;;;;5082251;28;20080;-67
2024/01/02 04:34:43;;;;;;;1.08;0.70;;;6.10;99.90;;;;;;5077353;28;20024;-67
2024/01/02 04:37:09;;;;;;;0.60;0.60;;;6.10;99.90;;;;;;5081818;28;20100;-67
2024/01/02 04:39:34;;;;;;;1.60;0.80;;;6.10;99.90;;;;;;5079108;28;20039;-67
2024/01/02 04:42:03;;;;;;;2.95;1.00;;;6.20;99.90;;;;;;5081389;28;20482;-67
2024/01/02 04:44:28;;;;;;;2.22;0.80;;;6.20;99.90;;;;;;5079348;28;20024;-67
2024/01/02 04:46:54;;;;;;;0.95;0.70;;;6.20;99.90;;;;;;5081565;28;20035;-67
2024/01/02 04:49:20;;;;;;;1.58;0.70;;;6.30;99.90;;;;;;5081143;28;20121;-67
2024/01/02 04:51:45;;;;;;;1.77;0.80;;;6.30;99.90;;;;;;5081860;28;20065;-67
2024/01/02 04:54:11;;;;;;;1.25;0.65;;;6.30;99.90;;;;;;5079604;28;20029;-67
2024/01/02 04:56:37;;;;;;;1.60;0.70;;;6.30;99.90;;;;;;5080757;28;20020;-67
2024/01/02 04:59:03;;;;;;;0.93;0.80;;;6.40;99.90;;;;;;5080833;28;20030;-67
2024/01/02 05:01:29;;;;;;;0.80;0.63;;;6.40;99.90;;;;;;5080163;28;20097;-67
2024/01/02 05:03:55;;;;;;;1.00;0.80;;;6.50;99.90;;;;;;5081741;28;20451;-67
2024/01/02 05:06:23;;;;;;;0.82;0.70;;;6.40;99.90;;;;;;5082134;28;20521;-67
2024/01/02 05:08:49;;;;;;;0.80;0.60;;;6.50;99.90;;;;;;5081945;28;20240;-67
2024/01/02 05:11:14;;;;;;;0.70;0.70;;;6.50;99.90;;;;;;5072805;28;20048;-67
2024/01/02 05:13:40;;;;;;;1.08;0.70;;;6.50;99.90;;;;;;5069445;28;20101;-67
2024/01/02 05:16:08;;;;;;;1.83;0.90;;;6.50;99.90;;;;;;5074043;28;20028;-67
2024/01/02 05:18:34;;;;;;;1.38;0.80;;;6.60;99.90;;;;;;5074142;28;20020;-67
2024/01/02 05:20:59;;;;;;;1.05;0.70;;;6.50;99.90;;;;;;5073510;28;20024;-68
2024/01/02 05:23:25;;;;;;;1.13;0.80;;;6.50;99.90;;;;;;5080084;28;20027;-67
2024/01/02 05:25:51;;;;;;;1.38;0.90;;;6.60;99.90;;;;;;5079365;28;20471;-67
2024/01/02 05:28:16;;;;;;;3.25;0.82;;;6.60;99.90;;;;;;5068985;28;20020;-67
2024/01/02 05:30:42;;;;;;;1.58;0.70;;;6.60;99.90;;;;;;5071235;28;20558;-68
2024/01/02 05:33:08;;;;;;;2.33;0.80;;;6.70;99.90;;;;;;5080536;28;20406;-67
2024/01/02 05:35:34;;;;;;;1.73;0.80;;;6.70;99.90;;;;;;5071573;28;20020;-67
2024/01/02 05:37:59;;;;;;;1.38;0.73;;;6.70;99.90;;;;;;5076901;28;20771;-67
2024/01/02 05:40:25;;;;;;;0.70;0.65;;;6.80;99.90;;;;;;5080087;28;20088;-68
2024/01/02 05:42:51;;;;;;;1.95;0.80;;;6.80;99.90;;;;;;5081328;28;20020;-68
2024/01/02 05:45:16;;;;;;;0.90;0.70;;;6.90;99.90;;;;;;5075653;28;20456;-67
2024/01/02 05:47:42;;;;;;;1.20;0.70;;;7.00;99.90;;;;;;5075128;28;20043;-67
2024/01/02 05:50:07;;;;;;;0.68;0.60;;;7.00;99.90;;;;;;5077084;28;20041;-67
2024/01/02 05:52:33;;;;;;;0.60;0.60;;;7.00;99.90;;;;;;5075374;28;20103;-67
2024/01/02 05:54:59;;;;;;;0.90;0.70;;;7.10;99.90;;;;;;5077273;28;20042;-67
2024/01/02 05:57:25;;;;;;;0.65;0.65;;;7.10;99.90;;;;;;5069362;28;20027;-68
2024/01/02 05:59:50;;;;;;;0.80;0.60;;;7.10;99.90;;;;;;5079779;28;20045;-67
2024/01/02 06:02:16;;;;;;;1.38;0.70;;;7.10;99.90;;;;;;5078651;28;20047;-67
2024/01/02 06:04:42;;;;;;;0.55;0.55;;;7.10;99.90;;;;;;5079316;28;20576;-68
2024/01/02 06:07:07;;;;;;;0.60;0.60;;;7.10;99.90;;;;;;5078746;28;20016;-68
2024/01/02 06:09:33;;;;;;;0.82;0.60;;;7.20;99.90;;;;;;5073457;28;20031;-68
2024/01/02 06:11:58;;;;;;;1.45;0.60;;;7.20;99.90;;;;;;5078173;28;20111;-68
2024/01/02 06:14:24;;;;;;;0.82;0.60;;;7.20;99.90;;;;;;5078721;28;20541;-67
2024/01/02 06:16:49;;;;;;;1.48;0.80;;;7.20;99.90;;;;;;5080044;28;20059;-67
2024/01/02 06:19:18;;;;;;;0.88;0.68;;;7.30;99.90;;;;;;5077598;28;20028;-67
2024/01/02 06:21:43;;;;;;;1.20;0.65;;;7.30;99.90;;;;;;5076300;28;20349;-67
2024/01/02 06:24:09;;;;;;;0.70;0.60;;;7.30;99.90;;;;;;5072416;28;20032;-67
2024/01/02 06:26:35;;;;;;;0.60;0.60;;;7.40;99.90;;;;;;5078210;28;20028;-68
2024/01/02 06:29:00;;;;;;;0.70;0.60;;;7.40;99.90;;;;;;5083468;28;20024;-67
2024/01/02 06:31:26;;;;;;;0.70;0.50;;;7.50;99.90;;;;;;5076129;28;20054;-67
2024/01/02 06:33:51;;;;;;;0.60;0.57;;;7.50;99.90;;;;;;5076052;28;20023;-67
2024/01/02 06:36:17;;;;;;;0.60;0.60;;;7.50;99.90;;;;;;5076515;28;20016;-67
2024/01/02 06:38:43;;;;;;;1.60;0.60;;;7.60;99.90;;;;;;5077107;28;20126;-67
2024/01/02 06:41:08;;;;;;;0.60;0.60;;;7.60;99.90;;;;;;5079151;28;20485;-67
2024/01/02 06:43:34;;;;;;;0.60;0.60;;;7.60;99.90;;;;;;5075594;28;20028;-68
2024/01/02 06:46:02;;;;;;;0.63;0.60;;;7.60;99.90;;;;;;5071332;28;20024;-67
2024/01/02 06:48:28;;;;;;;0.90;0.63;;;7.60;99.90;;;;;;5070964;28;20066;-67
2024/01/02 06:50:53;;;;;;;0.57;0.57;;;7.70;99.90;;;;;;5074287;28;20067;-67
2024/01/02 06:53:19;;;;;;;1.45;0.70;;;7.70;99.90;;;;;;5069211;28;20033;-68
2024/01/02 06:55:44;;;;;;;0.70;0.60;;;7.80;99.90;;;;;;5078207;28;20221;-67
2024/01/02 06:58:11;;;;;;;0.80;0.60;;;7.80;99.90;;;;;;5076681;28;20035;-68
2024/01/02 07:00:37;;;;;;;1.15;0.70;;;7.90;99.90;;;;;;5073164;28;20073;-67
2024/01/02 07:03:03;;;;;;;1.13;0.68;;;7.90;99.90;;;;;;5074263;28;20033;-68
2024/01/02 07:05:29;;;;;;;1.55;0.80;;;7.90;99.90;;;;;;5079241;28;20495;-67
2024/01/02 07:07:55;;;;;;;0.90;0.70;;;7.90;99.90;;;;;;5081501;28;20081;-67
2024/01/02 07:10:21;;;;;;;1.17;0.60;;;8.00;99.90;;;;;;5085235;28;20064;-67
2024/01/02 07:12:47;;;;;;;0.85;0.70;;;8.00;99.90;;;;;;5085364;28;20099;-67
2024/01/02 07:15:12;;;;;;;2.83;0.80;;;8.10;99.90;;;;;;5083953;28;20032;-68
2024/01/02 07:17:40;;;;;;;1.88;0.80;;;8.20;99.90;;;;;;5085494;28;20471;-67
2024/01/02 07:20:06;;;;;;;1.90;0.90;;;8.30;99.90;;;;;;5083370;28;20035;-67
2024/01/02 07:22:32;;;;;;;1.30;0.85;;;8.20;99.90;;;;;;5083671;28;20495;-68
2024/01/02 07:24:57;;;;;;;2.20;0.95;;;8.30;99.90;;;;;;5084061;28;20029;-68
2024/01/02 07:27:23;;;;;;;2.67;1.00;;;8.30;99.90;;;;;;5086137;28;20105;-67
2024/01/02 07:29:49;;;;;;;1.98;1.00;;;8.30;99.90;;;;;;5085834;28;20459;-67
2024/01/02 07:32:15;;;;;;;3.35;1.17;;;8.40;99.90;;;;;;5084629;28;20019;-68
2024/01/02 07:34:40;;;;;;;3.03;1.13;;;8.40;99.90;;;;;;5090384;28;20391;-67
2024/01/02 07:37:06;;;;;;;3.17;1.13;;;8.40;99.90;;;;;;5086883;28;20024;-68
2024/01/02 07:39:34;;;;;;;3.42;1.30;;;8.50;99.90;;;;;;5083188;28;20039;-67
2024/01/02 07:42:00;;;;;;;1.80;0.85;;;8.50;99.90;;;;;;5092957;28;20072;-67
2024/01/02 07:44:25;;;;;;;2.42;1.10;;;8.60;99.90;;;;;;5082598;28;20491;-67
2024/01/02 07:46:51;;;;;;;3.60;1.27;;;8.70;99.90;;;;;;5084784;28;20063;-67
2024/01/02 07:49:17;;;;;;;3.28;1.33;;;8.80;99.90;;;;;;5082605;28;20052;-68
2024/01/02 07:51:43;;;;;;;3.55;1.30;;;8.90;99.90;;;;;;5085408;28;20132;-68
2024/01/02 07:54:08;;;;;;;4.65;1.70;;;8.90;99.90;;;;;;5083475;28;20456;-68
2024/01/02 07:56:34;;;;;;;5.78;2.03;;;8.90;99.90;;;;;;5083149;28;20035;-68
2024/01/02 07:59:00;;;;;;;4.40;1.33;;;9.00;99.90;;;;;;5085978;28;20111;-67
2024/01/02 08:01:25;;;;;;;4.50;1.63;;;9.00;99.90;;;;;;5082136;28;20132;-68
2024/01/02 08:03:51;;;;;;;5.07;1.48;;;9.10;99.90;;;;;;5084915;28;20479;-68
2024/01/02 08:06:17;;;;;;;6.25;1.92;;;9.20;99.90;;;;;;5084782;28;20034;-68
2024/01/02 08:08:42;;;;;;;4.32;1.65;;;9.30;99.90;;;;;;5082970;28;20059;-68
2024/01/02 08:11:09;;;;;;;3.50;1.40;;;9.40;99.90;;;;;;5084130;28;20134;-68
2024/01/02 08:13:34;;;;;;;4.43;1.65;;;9.50;99.90;;;;;;5082997;28;20020;-68
2024/01/02 08:16:03;;;;;;;5.05;1.58;;;9.50;99.90;;;;;;5086016;28;20673;-68
2024/01/02 08:18:29;;;;;;;3.88;1.48;;;9.60;99.90;;;;;;5081654;28;20471;-69
2024/01/02 08:20:55;;;;;;;2.33;1.17;;;9.60;99.90;;;;;;5081942;28;20111;-68
2024/01/02 08:23:20;;;;;;;5.22;1.50;;;9.60;99.90;;;;;;5080522;28;20099;-68
2024/01/02 08:25:46;;;;;;;4.03;1.40;;;9.70;99.90;;;;;;5080573;28;20025;-68
2024/01/02 08:28:12;;;;;;;8.13;1.40;;;9.70;99.90;;;;;;5079296;28;20019;-68
2024/01/02 08:30:37;;;;;;;3.58;1.30;;;9.70;99.90;;;;;;5078983;28;20427;-68
2024/01/02 08:33:03;;;;;;;3.40;1.20;;;9.80;99.90;;;;;;5079064;28;20021;-68
2024/01/02 08:35:29;;;;;;;3.88;1.30;;;9.80;99.90;;;;;;5083048;28;20043;-68
2024/01/02 08:37:55;;;;;;;2.35;1.05;;;9.90;99.90;;;;;;5078878;28;20021;-68
2024/01/02 08:40:20;;;;;;;2.58;1.00;;;9.90;99.90;;;;;;5081667;28;20033;-68
2024/01/02 08:42:46;;;;;;;2.03;0.90;;;9.90;99.90;;;;;;5080213;28;20036;-68
2024/01/02 08:45:12;;;;;;;2.72;1.00;;;9.90;99.90;;;;;;5080687;28;20036;-68
2024/01/02 08:47:38;;;;;;;3.03;1.10;;;10.00;99.90;;;;;;5081747;28;20053;-68
2024/01/02 08:50:06;;;;;;;3.88;1.30;;;10.00;99.90;;;;;;5082397;28;20027;-68
2024/01/02 08:52:32;;;;;;;3.00;1.15;;;10.00;99.90;;;;;;5079020;28;20044;-68
2024/01/02 08:54:58;;;;;;;3.88;1.30;;;10.10;99.90;;;;;;5082156;28;20024;-68
2024/01/02 08:57:24;;;;;;;3.92;1.13;;;10.10;99.90;;;;;;5079069;28;20083;-68
2024/01/02 08:59:49;;;;;;;2.15;1.00;;;10.10;99.90;;;;;;5081006;28;20032;-68
2024/01/02 09:02:15;;;;;;;3.08;1.30;;;10.20;99.90;;;;;;5077362;28;20031;-68
2024/01/02 09:04:43;;;;;;;2.53;1.00;;;10.20;99.90;;;;;;5079753;28;20467;-68
2024/01/02 09:07:09;;;;;;;5.97;1.40;;;10.20;99.90;;;;;;5080970;28;20031;-68
2024/01/02 09:09:34;;;;;;;3.40;1.20;;;10.20;99.90;;;;;;5079474;28;20093;-68
2024/01/02 09:12:01;;;;;;;5.40;1.52;;;10.20;99.90;;;;;;5081463;28;20134;-68
2024/01/02 09:14:26;;;;;;;3.08;1.20;;;10.20;99.90;;;;;;5078599;28;20505;-68
2024/01/02 09:16:52;;;;;;;4.53;1.35;;;10.30;99.90;;;;;;5081443;28;20032;-67
2024/01/02 09:19:17;;;;;;;3.35;1.17;;;10.30;99.90;;;;;;5079588;28;20032;-67
2024/01/02 09:21:43;;;;;;;2.80;1.08;;;10.30;99.90;;;;;;5080210;28;20052;-67
2024/01/02 09:24:09;;;;;;;3.33;1.05;;;10.40;99.90;;;;;;5080667;28;20020;-68
2024/01/02 09:26:37;;;;;;;3.05;1.00;;;10.40;99.90;;;;;;5078911;28;20058;-68
2024/01/02 09:29:03;;;;;;;1.65;0.75;;;10.50;99.90;;;;;;5078311;28;20056;-67
2024/01/02 09:31:30;;;;;;;3.08;1.10;;;10.50;99.90;;;;;;5079320;28;20063;-68
2024/01/02 09:33:56;;;;;;;2.85;1.08;;;10.50;99.90;;;;;;5077945;28;20027;-68
2024/01/02 09:36:22;;;;;;;3.17;1.08;;;10.50;99.90;;;;;;5081770;28;20022;-68
2024/01/02 09:38:47;;;;;;;1.38;0.80;;;10.50;99.90;;;;;;5078457;28;20446;-67
2024/01/02 09:41:25;;;;;;;2.75;0.90;;;10.50;99.90;;;;;;5080408;28;20028;-67
2024/01/02 09:44:30;;;;;;;2.78;1.00;;;10.50;99.90;;;;;;5077920;28;20028;-68
2024/01/02 09:47:09;;;;;;;2.63;1.00;;;10.60;99.90;;;;;;5069055;28;20488;-67
2024/01/02 09:50:21;;;;;;;2.08;0.93;;;10.70;99.90;;;;;;5075665;28;20468;-67
2024/01/02 09:53:17;;;;;;;3.13;1.05;;;10.60;99.90;;;;;;5094952;28;20016;-68
2024/01/02 09:56:00;;;;;;;5.22;1.05;;;10.70;99.90;;;;;;5078645;28;20100;-68
2024/01/02 09:58:32;;;;;;;3.22;1.10;;;10.80;99.90;;;;;;5075659;28;20025;-68
2024/01/02 10:01:13;;;;;;;2.35;0.95;;;10.80;99.90;;;;;;5072877;28;20048;-67
2024/01/02 10:03:54;;;;;;;2.60;1.00;;;10.80;99.90;;;;;;5079931;28;20123;-68
2024/01/02 10:06:46;;;;;;;3.92;1.30;;;10.80;99.90;;;;;;5078123;28;20066;-68
2024/01/02 10:09:40;;;;;;;3.53;1.33;;;10.80;99.90;;;;;;5092401;28;20020;-67
2024/01/02 10:12:27;;;;;;;3.38;1.23;;;10.80;99.90;;;;;;5076186;28;20044;-68
2024/01/02 10:15:31;;;;;;;2.72;1.00;;;10.80;99.90;;;;;;5073427;28;20118;-68
2024/01/02 10:18:12;;;;;;;3.60;1.10;;;10.70;99.90;;;;;;5074316;28;20122;-68
2024/01/02 10:21:15;;;;;;;2.38;0.98;;;10.70;99.90;;;;;;5079054;28;20058;-68
2024/01/02 10:23:54;;;;;;;3.58;1.20;;;10.80;99.90;;;;;;5079147;28;20745;-68
2024/01/02 10:26:23;;;;;;;3.28;1.15;;;10.70;99.90;;;;;;5073261;28;20025;-68
2024/01/02 10:28:50;;;;;;;3.35;1.20;;;10.80;99.90;;;;;;5084854;28;20111;-68
2024/01/02 10:31:44;;;;;;;3.75;1.30;;;10.80;99.90;;;;;;5078705;28;20024;-67
2024/01/02 10:34:26;;;;;;;3.28;1.17;;;10.70;99.90;;;;;;5077298;28;20060;-68
2024/01/02 10:37:05;;;;;;;2.95;1.10;;;10.70;99.90;;;;;;5068323;28;20483;-68
2024/01/02 10:39:35;;;;;;;4.93;1.60;;;10.80;99.90;;;;;;5089729;28;20028;-67
2024/01/02 10:42:26;;;;;;;4.47;1.33;;;10.80;99.90;;;;;;5078585;28;20365;-67
2024/01/02 10:45:11;;;;;;;4.20;1.05;;;10.80;99.90;;;;;;5073487;28;20032;-67
2024/01/02 10:47:49;;;;;;;2.72;1.10;;;10.80;99.90;;;;;;5078573;28;20024;-68
2024/01/02 10:50:19;;;;;;;3.10;1.08;;;10.80;99.90;;;;;;5080344;28;20078;-68
2024/01/02 10:52:50;;;;;;;1.83;0.90;;;10.80;99.90;;;;;;5078886;28;20039;-68
2024/01/02 10:55:57;;;;;;;2.28;1.08;;;10.80;99.90;;;;;;5077099;28;20029;-68
2024/01/02 10:58:24;;;;;;;3.38;1.20;;;10.80;99.90;;;;;;5074239;28;20067;-67
2024/01/02 11:01:06;;;;;;;4.05;1.38;;;10.80;99.90;;;;;;5078271;28;20573;-67
2024/01/02 11:03:48;;;;;;;3.03;1.20;;;10.90;99.90;;;;;;5076748;28;20021;-68
2024/01/02 11:06:23;;;;;;;3.58;1.50;;;10.90;99.90;;;;;;5075492;28;20613;-68
2024/01/02 11:09:26;;;;;;;4.72;1.80;;;11.00;99.90;;;;;;5067929;28;20462;-67
2024/01/02 11:11:54;;;;;;;4.88;1.60;;;11.10;99.90;;;;;;5073556;28;20086;-67
2024/01/02 11:14:21;;;;;;;4.43;1.63;;;11.00;99.90;;;;;;5079911;28;20020;-68
2024/01/02 11:16:49;;;;;;;6.28;2.20;;;11.10;99.90;;;;;;5076269;28;20471;-69
2024/01/02 11:19:17;;;;;;;6.10;2.30;;;11.00;99.90;;;;;;5072949;28;20028;-67
2024/01/02 11:21:54;;;;;;;6.55;2.40;;;11.00;99.90;;;;;;5075416;28;20029;-67
2024/01/02 11:24:23;;;;;;;5.32;2.00;;;11.10;99.90;;;;;;5073657;28;20034;-68
2024/01/02 11:26:51;;;;;;;5.95;1.90;;;11.10;99.90;;;;;;5079418;28;20024;-68
2024/01/02 11:29:26;;;;;;;2.90;1.15;;;11.10;99.90;;;;;;5078870;28;20491;-68
2024/01/02 11:31:54;;;;;;;4.53;1.60;;;11.10;99.90;;;;;;5072426;28;20017;-67
2024/01/02 11:34:44;;;;;;;3.15;1.20;;;11.10;99.90;;;;;;5080285;28;20023;-69
2024/01/02 11:37:18;;;;;;;4.45;1.30;;;11.10;99.90;;;;;;5086347;28;20032;-69
2024/01/02 11:40:09;;;;;;;2.55;0.98;;;11.10;99.90;;;;;;5072685;28;20020;-69
2024/01/02 11:42:48;;;;;;;3.53;1.10;;;11.20;99.90;;;;;;5079729;28;20024;-68
2024/01/02 11:45:18;;;;;;;3.30;1.23;;;11.10;99.90;;;;;;5072301;28;20888;-69
2024/01/02 11:47:48;;;;;;;3.60;1.23;;;11.10;99.90;;;;;;5072662;28;20487;-68
2024/01/02 11:50:15;;;;;;;3.67;1.40;;;11.10;99.90;;;;;;5072401;28;20028;-69
2024/01/02 11:53:00;;;;;;;3.08;1.40;;;11.10;99.90;;;;;;5079136;28;20396;-69
2024/01/02 11:55:45;;;;;;;3.60;1.38;;;11.10;99.90;;;;;;5078802;28;20027;-69
2024/01/02 11:58:33;;;;;;;3.38;1.33;;;11.20;99.90;;;;;;5079081;28;20024;-69
2024/01/02 12:01:15;;;;;;;3.22;1.30;;;11.10;99.90;;;;;;5077967;28;20040;-69
2024/01/02 12:04:07;;;;;;;3.08;1.20;;;11.10;99.90;;;;;;5074593;28;20024;-69
2024/01/02 12:06:57;;;;;;;2.60;1.10;;;11.10;99.90;;;;;;5079515;28;20033;-69
2024/01/02 12:09:26;;;;;;;2.80;1.10;;;11.00;99.90;;;;;;5079073;28;20027;-68
2024/01/02 12:12:26;;;;;;;2.70;1.10;;;11.00;99.90;;;;;;5082078;28;20043;-68
2024/01/02 12:15:13;;;;;;;1.80;1.00;;;11.00;99.90;;;;;;5045665;28;20033;-68
2024/01/02 12:17:44;;;;;;;1.95;0.95;;;10.90;99.90;;;;;;5080155;28;20379;-68
2024/01/02 12:20:10;;;;;;;3.63;1.08;;;10.90;99.90;;;;;;5076300;28;20028;-69
2024/01/02 12:22:36;;;;;;;1.80;1.00;;;10.80;99.90;;;;;;5080364;28;20050;-69
2024/01/02 12:25:09;;;;;;;4.22;1.02;;;10.80;99.90;;;;;;5089294;28;20076;-69
2024/01/02 12:27:36;;;;;;;1.30;0.75;;;10.70;99.90;;;;;;5080737;28;20055;-68
2024/01/02 12:30:04;;;;;;;5.32;1.30;;;10.60;99.90;;;;;;5080887;28;20036;-69
2024/01/02 12:32:30;;;;;;;3.03;1.15;;;10.60;99.90;;;;;;5077967;28;20032;-69
2024/01/02 12:35:05;;;;;;;2.30;1.02;;;10.50;99.90;;;;;;5080990;28;20021;-69
2024/01/02 12:37:40;;;;;;;1.88;1.00;;;10.40;99.90;;;;;;5082952;28;20035;-69
2024/01/02 12:40:10;;;;;;;3.33;1.15;;;10.20;99.90;;;;;;5079049;28;20032;-69
2024/01/02 12:42:45;;;;;;;2.38;0.98;;;10.20;99.90;;;;;;5082851;28;20103;-69
2024/01/02 12:45:14;;;;;;;1.40;0.82;;;10.20;99.90;;;;;;5074341;28;20032;-68
2024/01/02 12:47:47;;;;;;;1.73;0.83;;;10.10;99.90;;;;;;5074062;28;20044;-68
2024/01/02 12:50:16;;;;;;;2.53;1.00;;;10.00;99.90;;;;;;5075892;28;20269;-68
2024/01/02 12:52:51;;;;;;;2.95;1.00;;;10.00;99.90;;;;;;5082562;28;20031;-68
2024/01/02 12:55:19;;;;;;;1.10;0.70;;;10.00;99.90;;;;;;5079147;28;20107;-68
2024/01/02 12:57:46;;;;;;;3.03;0.90;;;10.00;99.90;;;;;;5076875;28;20120;-68
2024/01/02 13:00:16;;;;;;;2.55;0.88;;;9.90;99.90;;;;;;5080972;28;20784;-68
2024/01/02 13:02:42;;;;;;;1.58;0.77;;;9.80;99.90;;;;;;5084684;28;20028;-68